createdAt,value
2022-11-21T00:01:19.156Z,3.85
2022-11-21T00:03:47.634Z,4.50
2022-11-21T00:06:15.864Z,5.57
2022-11-21T00:08:43.933Z,6.35
2022-11-21T00:11:13.481Z,6.90
2022-11-21T00:13:41.843Z,7.25
2022-11-21T00:16:11.981Z,7.18
2022-11-21T00:18:40.476Z,6.47
2022-11-21T00:21:10.028Z,7.18
2022-11-21T00:23:37.883Z,7.68
2022-11-21T00:26:06.980Z,7.28
2022-11-21T00:28:36.943Z,6.60
2022-11-21T00:31:05.987Z,7.30
2022-11-21T00:33:39.145Z,6.85
2022-11-21T00:36:08.851Z,6.68
2022-11-21T00:38:36.677Z,6.45
2022-11-21T00:41:04.757Z,6.82
2022-11-21T00:43:32.527Z,6.65
2022-11-21T00:46:02.922Z,6.50
2022-11-21T00:48:32.252Z,6.40
2022-11-21T00:51:01.442Z,6.45
2022-11-21T00:53:30.255Z,6.68
2022-11-21T00:55:58.371Z,6.70
2022-11-21T00:58:26.260Z,6.93
2022-11-21T01:00:54.204Z,7.57
2022-11-21T01:03:23.490Z,7.45
2022-11-21T01:05:51.587Z,7.50
2022-11-21T01:08:19.445Z,7.45
2022-11-21T01:10:47.198Z,7.78
2022-11-21T01:13:14.959Z,7.57
2022-11-21T01:15:42.740Z,8.73
2022-11-21T01:18:10.923Z,8.57
2022-11-21T01:20:41.501Z,8.55
2022-11-21T01:23:09.391Z,8.38
2022-11-21T01:25:37.712Z,9.88
2022-11-21T01:28:05.819Z,10.02
2022-11-21T01:30:33.573Z,9.70
2022-11-21T01:33:01.367Z,10.20
2022-11-21T01:35:29.587Z,10.68
2022-11-21T01:37:58.790Z,10.27
2022-11-21T01:40:26.944Z,11.00
2022-11-21T01:43:06.126Z,11.07
2022-11-21T01:45:55.517Z,9.98
2022-11-21T01:48:28.671Z,9.63
2022-11-21T01:51:00.370Z,10.05
2022-11-21T01:53:29.569Z,9.75
2022-11-21T01:55:57.430Z,10.43
2022-11-21T01:58:26.470Z,10.95
2022-11-21T02:00:54.797Z,10.85
2022-11-21T02:03:28.192Z,11.02
2022-11-21T02:05:57.172Z,10.18
2022-11-21T02:08:27.479Z,10.85
2022-11-21T02:11:07.690Z,11.02
2022-11-21T02:13:35.475Z,10.50
2022-11-21T02:16:03.629Z,12.02
2022-11-21T02:18:31.461Z,11.38
2022-11-21T02:21:08.209Z,10.43
2022-11-21T02:23:42.971Z,11.45
2022-11-21T02:26:13.014Z,11.00
2022-11-21T02:28:41.036Z,11.32
2022-11-21T02:31:08.865Z,10.55
2022-11-21T02:33:36.690Z,11.30
2022-11-21T02:36:05.289Z,11.35
2022-11-21T02:38:35.968Z,11.57
2022-11-21T02:41:10.807Z,11.38
2022-11-21T02:43:45.897Z,11.25
2022-11-21T02:46:13.783Z,11.23
2022-11-21T02:48:41.612Z,12.05
2022-11-21T02:51:10.449Z,10.95
2022-11-21T02:53:38.260Z,10.98
2022-11-21T02:56:06.192Z,11.07
2022-11-21T02:58:34.202Z,11.93
2022-11-21T03:01:03.437Z,10.82
2022-11-21T03:03:31.246Z,11.15
2022-11-21T03:05:59.100Z,10.73
2022-11-21T03:08:26.950Z,10.27
2022-11-21T03:10:54.757Z,10.68
2022-11-21T03:13:22.514Z,9.73
2022-11-21T03:15:50.335Z,10.45
2022-11-21T03:18:19.401Z,11.70
2022-11-21T03:20:47.227Z,9.98
2022-11-21T03:23:14.991Z,11.32
2022-11-21T03:25:42.820Z,10.88
2022-11-21T03:28:10.666Z,10.93
2022-11-21T03:30:38.455Z,11.00
2022-11-21T03:33:06.303Z,9.95
2022-11-21T03:35:35.475Z,11.10
2022-11-21T03:38:03.242Z,11.27
2022-11-21T03:40:31.023Z,11.38
2022-11-21T03:42:58.834Z,11.80
2022-11-21T03:45:26.667Z,12.43
2022-11-21T03:47:54.429Z,11.10
2022-11-21T03:50:22.234Z,11.23
2022-11-21T03:52:51.424Z,11.40
2022-11-21T03:55:19.340Z,11.95
2022-11-21T03:57:47.503Z,11.80
2022-11-21T04:00:16.882Z,11.73
2022-11-21T04:02:44.695Z,11.45
2022-11-21T04:05:12.629Z,11.15
2022-11-21T04:07:40.520Z,11.18
2022-11-21T04:10:10.785Z,11.77
2022-11-21T04:12:38.673Z,11.68
2022-11-21T04:15:13.220Z,12.00
2022-11-21T04:17:41.681Z,12.50
2022-11-21T04:20:10.558Z,11.98
2022-11-21T04:22:38.394Z,11.55
2022-11-21T04:25:07.313Z,11.55
2022-11-21T04:27:36.688Z,10.88
2022-11-21T04:30:05.137Z,11.20
2022-11-21T04:32:32.930Z,11.35
2022-11-21T04:35:00.666Z,11.75
2022-11-21T04:37:28.456Z,11.10
2022-11-21T04:39:56.444Z,10.98
2022-11-21T04:42:24.325Z,10.75
2022-11-21T04:44:53.540Z,10.43
2022-11-21T04:47:21.483Z,11.05
2022-11-21T04:49:49.252Z,10.23
2022-11-21T04:52:17.173Z,11.27
2022-11-21T04:54:44.936Z,10.48
2022-11-21T04:57:12.649Z,10.35
2022-11-21T04:59:40.405Z,11.77
2022-11-21T05:02:09.949Z,10.88
2022-11-21T05:04:37.932Z,10.95
2022-11-21T05:07:05.847Z,11.40
2022-11-21T05:09:33.632Z,11.32
2022-11-21T05:12:18.840Z,11.10
2022-11-21T05:14:46.839Z,11.18
2022-11-21T05:17:16.124Z,12.95
2022-11-21T05:19:43.912Z,14.40
2022-11-21T05:22:12.303Z,12.88
2022-11-21T05:24:40.608Z,13.80
2022-11-21T05:27:08.447Z,12.18
2022-11-21T05:29:36.244Z,12.60
2022-11-21T05:32:04.103Z,13.15
2022-11-21T05:34:33.390Z,13.88
2022-11-21T05:37:01.221Z,12.95
2022-11-21T05:39:29.004Z,13.90
2022-11-21T05:42:01.454Z,13.35
2022-11-21T05:44:30.873Z,13.43
2022-11-21T05:46:59.200Z,13.98
2022-11-21T05:49:27.127Z,14.18
2022-11-21T05:51:56.640Z,13.52
2022-11-21T05:54:24.587Z,13.85
2022-11-21T05:56:52.959Z,13.75
2022-11-21T05:59:20.846Z,13.40
2022-11-21T06:02:05.970Z,12.90
2022-11-21T06:04:34.174Z,13.30
2022-11-21T06:07:05.904Z,14.13
2022-11-21T06:09:33.834Z,13.88
2022-11-21T06:12:01.718Z,14.77
2022-11-21T06:14:29.770Z,14.27
2022-11-21T06:16:57.718Z,14.32
2022-11-21T06:19:25.504Z,15.45
2022-11-21T06:21:53.295Z,13.75
2022-11-21T06:24:22.597Z,13.60
2022-11-21T06:26:50.349Z,14.50
2022-11-21T06:29:18.235Z,14.73
2022-11-21T06:31:45.998Z,16.13
2022-11-21T06:34:13.795Z,15.13
2022-11-21T06:36:41.528Z,13.73
2022-11-21T06:39:09.389Z,14.52
2022-11-21T06:41:38.537Z,14.57
2022-11-21T06:44:06.623Z,14.57
2022-11-21T06:46:34.365Z,14.55
2022-11-21T06:49:02.384Z,13.82
2022-11-21T06:51:30.224Z,13.63
2022-11-21T06:53:59.890Z,15.15
2022-11-21T06:56:29.562Z,14.25
2022-11-21T06:59:00.336Z,14.07
2022-11-21T07:01:28.906Z,14.30
2022-11-21T07:03:56.834Z,13.98
2022-11-21T07:06:25.268Z,13.68
2022-11-21T07:09:25.418Z,14.95
2022-11-21T07:11:43.163Z,13.10
2022-11-21T07:14:11.648Z,13.68
2022-11-21T07:16:39.599Z,14.30
2022-11-21T07:19:07.404Z,14.35
2022-11-21T07:21:35.612Z,13.25
2022-11-21T07:24:03.340Z,13.77
2022-11-21T07:26:31.205Z,14.38
2022-11-21T07:28:59.678Z,13.48
2022-11-21T07:31:28.867Z,13.05
2022-11-21T07:33:56.669Z,14.32
2022-11-21T07:36:24.469Z,13.75
2022-11-21T07:38:52.196Z,12.52
2022-11-21T07:41:20.037Z,13.25
2022-11-21T07:44:01.240Z,12.63
2022-11-21T07:46:46.467Z,12.52
2022-11-21T07:49:14.926Z,11.45
2022-11-21T07:51:52.283Z,10.75
2022-11-21T07:54:23.256Z,11.15
2022-11-21T07:56:51.637Z,10.52
2022-11-21T07:59:19.943Z,10.50
2022-11-21T08:01:49.884Z,9.85
2022-11-21T08:04:17.797Z,10.55
2022-11-21T08:06:45.901Z,8.68
2022-11-21T08:09:13.931Z,9.32
2022-11-21T08:11:43.810Z,9.75
2022-11-21T08:14:12.152Z,9.48
2022-11-21T08:16:40.113Z,8.68
2022-11-21T08:19:10.037Z,8.77
2022-11-21T08:21:38.135Z,9.88
2022-11-21T08:24:10.449Z,9.00
2022-11-21T08:26:38.344Z,10.20
2022-11-21T08:29:06.282Z,8.60
2022-11-21T08:31:34.295Z,9.13
2022-11-21T08:34:02.286Z,8.48
2022-11-21T08:36:31.828Z,8.35
2022-11-21T08:38:59.590Z,8.73
2022-11-21T08:41:45.341Z,7.88
2022-11-21T08:44:16.243Z,6.68
2022-11-21T08:46:49.325Z,6.53
2022-11-21T08:51:49.333Z,5.63
2022-11-21T08:54:19.869Z,4.88
2022-11-21T08:56:47.980Z,4.30
2022-11-21T08:59:17.490Z,4.28
2022-11-21T09:01:45.830Z,4.22
2022-11-21T09:04:14.281Z,4.07
2022-11-21T09:06:42.268Z,4.03
2022-11-21T09:09:13.023Z,4.55
2022-11-21T09:11:41.722Z,4.35
2022-11-21T09:14:27.617Z,3.85
2022-11-21T09:17:12.975Z,4.53
2022-11-21T09:19:40.865Z,4.10
2022-11-21T09:22:08.751Z,4.13
2022-11-21T09:24:38.070Z,4.18
2022-11-21T09:27:06.009Z,4.63
2022-11-21T09:29:33.924Z,4.53
2022-11-21T09:32:01.825Z,4.20
2022-11-21T09:34:31.704Z,4.40
2022-11-21T09:36:59.734Z,4.15
2022-11-21T09:39:27.926Z,4.63
2022-11-21T09:42:09.202Z,4.60
2022-11-21T09:44:51.823Z,4.53
2022-11-21T09:47:29.415Z,4.70
2022-11-21T09:50:01.020Z,4.75
2022-11-21T09:52:37.087Z,4.32
2022-11-21T09:55:08.769Z,4.28
2022-11-21T09:57:38.109Z,4.18
2022-11-21T10:00:16.711Z,5.22
2022-11-21T10:02:44.611Z,4.32
2022-11-21T10:05:15.695Z,3.90
2022-11-21T10:07:47.212Z,4.43
2022-11-21T10:10:28.823Z,4.60
2022-11-21T10:13:11.846Z,4.45
2022-11-21T10:15:55.873Z,4.50
2022-11-21T10:18:56.811Z,3.80
2022-11-21T10:21:45.185Z,4.25
2022-11-21T10:24:30.778Z,3.58
2022-11-21T10:27:02.147Z,3.65
2022-11-21T10:29:36.376Z,3.97
2022-11-21T10:32:12.530Z,4.15
2022-11-21T10:34:40.478Z,4.55
2022-11-21T10:37:16.574Z,3.60
2022-11-21T10:39:48.147Z,3.80
2022-11-21T10:42:29.959Z,3.97
2022-11-21T10:45:19.475Z,4.03
2022-11-21T10:47:49.241Z,4.07
2022-11-21T10:50:40.399Z,3.75
2022-11-21T10:53:34.812Z,3.65
2022-11-21T10:56:05.959Z,3.50
2022-11-21T10:58:45.472Z,3.85
2022-11-21T11:01:30.191Z,3.65
2022-11-21T11:04:52.462Z,3.80
2022-11-21T11:07:26.029Z,4.25
2022-11-21T11:13:58.449Z,3.38
2022-11-21T11:16:35.945Z,3.45
2022-11-21T11:19:57.337Z,3.25
2022-11-21T11:22:29.079Z,3.13
2022-11-21T11:25:00.420Z,3.53
2022-11-21T11:27:29.439Z,3.75
2022-11-21T11:29:57.267Z,4.45
2022-11-21T11:32:26.878Z,4.82
2022-11-21T11:35:01.036Z,4.97
2022-11-21T11:37:40.348Z,4.70
2022-11-21T11:40:19.944Z,4.68
2022-11-21T11:43:32.139Z,4.53
2022-11-21T11:46:28.308Z,4.53
2022-11-21T11:49:21.886Z,4.80
2022-11-21T11:51:54.523Z,4.05
2022-11-21T11:54:27.736Z,4.05
2022-11-21T11:56:56.712Z,3.58
2022-11-21T11:59:29.804Z,3.40
2022-11-21T12:02:06.312Z,3.63
2022-11-21T12:04:45.450Z,3.65
2022-11-21T12:10:16.279Z,3.55
2022-11-21T12:12:50.201Z,3.72
2022-11-21T12:15:39.778Z,3.35
2022-11-21T12:18:17.254Z,2.97
2022-11-21T12:20:55.446Z,3.40
2022-11-21T12:23:25.348Z,2.65
2022-11-21T12:26:04.568Z,2.30
2022-11-21T12:28:42.373Z,2.17
2022-11-21T12:31:15.711Z,1.70
2022-11-21T12:33:51.660Z,2.10
2022-11-21T12:36:35.335Z,1.60
2022-11-21T12:39:46.176Z,1.35
2022-11-21T12:42:39.319Z,1.35
2022-11-21T12:45:27.356Z,1.50
2022-11-21T12:48:29.744Z,1.30
2022-11-21T12:51:31.690Z,1.52
2022-11-21T12:54:24.178Z,1.50
2022-11-21T12:57:00.905Z,1.30
2022-11-21T12:59:32.078Z,1.48
2022-11-21T13:02:08.435Z,1.50
2022-11-21T13:04:39.482Z,1.77
2022-11-21T13:07:08.540Z,1.70
2022-11-21T13:09:41.158Z,1.70
2022-11-21T13:12:16.394Z,1.65
2022-11-21T13:14:52.767Z,1.70
2022-11-21T13:17:30.427Z,1.98
2022-11-21T13:20:01.375Z,2.20
2022-11-21T13:22:52.006Z,2.28
2022-11-21T13:25:47.691Z,2.25
2022-11-21T13:28:34.749Z,1.95
2022-11-21T13:31:04.900Z,1.45
2022-11-21T13:33:51.146Z,1.33
2022-11-21T13:36:40.224Z,1.33
2022-11-21T13:39:39.297Z,1.30
2022-11-21T13:45:39.196Z,1.10
2022-11-21T13:48:38.784Z,1.13
2022-11-21T13:51:29.915Z,1.30
2022-11-21T13:54:15.957Z,1.02
2022-11-21T13:57:04.062Z,1.20
2022-11-21T14:00:00.072Z,1.10
2022-11-21T14:02:50.738Z,1.17
2022-11-21T14:05:33.313Z,1.05
2022-11-21T14:08:15.189Z,0.90
2022-11-21T14:10:46.717Z,1.10
2022-11-21T14:13:24.695Z,1.13
2022-11-21T14:16:09.403Z,1.02
2022-11-21T14:18:39.998Z,1.33
2022-11-21T14:21:09.205Z,1.00
2022-11-21T14:23:44.164Z,1.38
2022-11-21T14:26:15.954Z,1.10
2022-11-21T14:28:43.990Z,1.10
2022-11-21T14:31:14.625Z,1.08
2022-11-21T14:33:43.693Z,1.15
2022-11-21T14:36:15.597Z,1.20
2022-11-21T14:38:47.068Z,1.30
2022-11-21T14:41:29.902Z,1.20
2022-11-21T14:44:16.593Z,1.50
2022-11-21T14:46:47.459Z,1.38
2022-11-21T14:49:24.894Z,1.23
2022-11-21T14:51:59.527Z,1.27
2022-11-21T14:54:31.257Z,1.33
2022-11-21T14:57:01.290Z,1.23
2022-11-21T14:59:32.042Z,1.42
2022-11-21T15:02:03.958Z,1.33
2022-11-21T15:04:34.418Z,1.30
2022-11-21T15:07:03.210Z,1.15
2022-11-21T15:10:26.694Z,1.30
2022-11-21T15:12:29.829Z,1.27
2022-11-21T15:15:01.994Z,1.33
2022-11-21T15:17:31.714Z,1.30
2022-11-21T15:20:11.611Z,1.27
2022-11-21T15:22:42.263Z,1.50
2022-11-21T15:25:17.047Z,1.75
2022-11-21T15:27:47.206Z,1.50
2022-11-21T15:30:25.512Z,1.30
2022-11-21T15:33:09.444Z,1.50
2022-11-21T15:35:51.786Z,1.35
2022-11-21T15:38:32.054Z,1.23
2022-11-21T15:41:24.095Z,1.38
2022-11-21T15:43:53.846Z,1.80
2022-11-21T15:46:23.561Z,1.17
2022-11-21T15:48:54.436Z,1.60
2022-11-21T15:51:51.385Z,1.48
2022-11-21T15:54:15.123Z,1.52
2022-11-21T15:56:42.931Z,1.50
2022-11-21T15:59:11.477Z,1.60
2022-11-21T16:01:39.498Z,1.52
2022-11-21T16:04:10.922Z,1.50
2022-11-21T16:06:38.826Z,1.58
2022-11-21T16:09:06.879Z,1.75
2022-11-21T16:11:37.286Z,1.80
2022-11-21T16:14:07.109Z,1.60
2022-11-21T16:16:42.697Z,1.80
2022-11-21T16:19:13.695Z,1.55
2022-11-21T16:21:42.161Z,1.65
2022-11-21T16:24:12.550Z,1.63
2022-11-21T16:26:40.401Z,1.77
2022-11-21T16:29:08.291Z,1.45
2022-11-21T16:31:36.208Z,1.60
2022-11-21T16:34:04.138Z,1.85
2022-11-21T16:36:33.658Z,1.83
2022-11-21T16:39:08.868Z,1.38
2022-11-21T16:41:39.374Z,1.50
2022-11-21T16:44:13.634Z,1.67
2022-11-21T16:46:44.392Z,2.40
2022-11-21T16:49:12.371Z,2.40
2022-11-21T16:51:41.586Z,2.10
2022-11-21T16:54:09.886Z,1.88
2022-11-21T16:56:38.100Z,1.70
2022-11-21T16:59:06.053Z,1.70
2022-11-21T17:01:34.075Z,1.52
2022-11-21T17:04:02.127Z,1.73
2022-11-21T17:06:31.710Z,1.67
2022-11-21T17:09:02.299Z,2.05
2022-11-21T17:11:31.964Z,2.08
2022-11-21T17:14:03.464Z,1.98
2022-11-21T17:16:31.893Z,1.70
2022-11-21T17:19:01.030Z,2.20
2022-11-21T17:21:29.986Z,1.98
2022-11-21T17:23:58.112Z,2.08
2022-11-21T17:26:30.285Z,1.85
2022-11-21T17:29:00.006Z,2.10
2022-11-21T17:31:28.637Z,2.03
2022-11-21T17:33:58.005Z,2.22
2022-11-21T17:36:28.000Z,1.98
2022-11-21T17:38:56.105Z,2.20
2022-11-21T17:41:26.063Z,1.98
2022-11-21T17:43:56.934Z,2.13
2022-11-21T17:46:26.280Z,2.33
2022-11-21T17:48:58.074Z,2.00
2022-11-21T17:51:28.831Z,1.80
2022-11-21T17:53:57.313Z,2.20
2022-11-21T17:56:27.525Z,2.20
2022-11-21T17:58:56.913Z,2.17
2022-11-21T18:01:25.028Z,2.40
2022-11-21T18:03:56.145Z,2.53
2022-11-21T18:06:24.780Z,2.33
2022-11-21T18:08:52.800Z,2.70
2022-11-21T18:11:39.282Z,2.45
2022-11-21T18:14:08.743Z,1.88
2022-11-21T18:16:37.236Z,2.00
2022-11-21T18:19:05.078Z,2.00
2022-11-21T18:21:35.444Z,1.90
2022-11-21T18:24:03.691Z,1.60
2022-11-21T18:26:34.789Z,1.98
2022-11-21T18:31:53.340Z,2.03
2022-11-21T18:34:21.266Z,1.50
2022-11-21T18:36:49.071Z,2.08
2022-11-21T18:39:16.843Z,2.00
2022-11-21T18:41:47.179Z,1.77
2022-11-21T18:44:21.294Z,2.00
2022-11-21T18:46:49.905Z,2.00
2022-11-21T18:49:18.252Z,2.17
2022-11-21T18:51:46.236Z,1.80
2022-11-21T18:54:14.058Z,1.98
2022-11-21T18:56:42.199Z,2.15
2022-11-21T18:59:14.419Z,1.73
2022-11-21T19:01:42.399Z,2.10
2022-11-21T19:04:10.384Z,2.20
2022-11-21T19:06:38.258Z,2.30
2022-11-21T19:09:06.129Z,2.90
2022-11-21T19:11:34.027Z,2.70
2022-11-21T19:14:02.011Z,2.40
2022-11-21T19:16:34.104Z,2.08
2022-11-21T19:21:50.477Z,2.10
2022-11-21T19:24:19.445Z,2.20
2022-11-21T19:26:50.364Z,2.30
2022-11-21T19:29:18.795Z,2.47
2022-11-21T19:31:48.011Z,2.28
2022-11-21T19:34:16.566Z,2.42
2022-11-21T19:36:45.894Z,2.05
2022-11-21T19:39:14.265Z,2.22
2022-11-21T19:41:42.389Z,2.30
2022-11-21T19:44:11.411Z,2.20
2022-11-21T19:46:40.697Z,2.17
2022-11-21T19:49:11.970Z,2.63
2022-11-21T19:51:41.680Z,2.72
2022-11-21T19:54:11.987Z,2.30
2022-11-21T19:56:40.496Z,2.58
2022-11-21T19:59:08.696Z,2.30
2022-11-21T20:01:36.559Z,2.70
2022-11-21T20:04:06.033Z,2.30
2022-11-21T20:06:36.823Z,2.35
2022-11-21T20:09:07.937Z,2.40
2022-11-21T20:11:36.627Z,1.92
2022-11-21T20:14:04.919Z,2.10
2022-11-21T20:16:34.528Z,2.17
2022-11-21T20:19:04.506Z,2.30
2022-11-21T20:21:32.528Z,2.10
2022-11-21T20:24:01.899Z,2.20
2022-11-21T20:26:29.894Z,2.25
2022-11-21T20:28:58.142Z,2.13
2022-11-21T20:31:28.159Z,2.47
2022-11-21T20:33:58.189Z,1.83
2022-11-21T20:36:27.701Z,2.40
2022-11-21T20:38:57.009Z,2.67
2022-11-21T20:41:28.252Z,2.15
2022-11-21T20:46:48.077Z,2.25
2022-11-21T20:49:16.632Z,2.20
2022-11-21T20:54:33.188Z,2.13
2022-11-21T20:57:02.642Z,1.98
2022-11-21T20:59:30.619Z,2.08
2022-11-21T21:01:58.673Z,2.03
2022-11-21T21:04:27.044Z,1.83
2022-11-21T21:06:54.887Z,2.22
2022-11-21T21:09:22.760Z,2.00
2022-11-21T21:11:52.506Z,2.22
2022-11-21T21:14:22.442Z,2.00
2022-11-21T21:16:50.658Z,1.98
2022-11-21T21:19:19.008Z,2.22
2022-11-21T21:21:46.859Z,2.40
2022-11-21T21:24:15.978Z,2.22
2022-11-21T21:26:46.623Z,2.05
2022-11-21T21:29:18.462Z,2.10
2022-11-21T21:31:51.731Z,1.92
2022-11-21T21:34:20.722Z,1.90
2022-11-21T21:36:48.965Z,2.17
2022-11-21T21:39:16.853Z,2.20
2022-11-21T21:41:46.647Z,2.10
2022-11-21T21:44:16.230Z,2.00
2022-11-21T21:46:44.364Z,2.08
2022-11-21T21:49:13.751Z,2.30
2022-11-21T21:51:41.997Z,2.30
2022-11-21T21:54:16.843Z,2.20
2022-11-21T21:56:46.519Z,2.05
2022-11-21T21:59:15.019Z,2.10
2022-11-21T22:01:43.760Z,2.40
2022-11-21T22:04:13.533Z,1.98
2022-11-21T22:06:41.754Z,2.10
2022-11-21T22:09:09.745Z,2.00
2022-11-21T22:11:39.639Z,2.17
2022-11-21T22:14:11.537Z,2.40
2022-11-21T22:16:39.839Z,2.15
2022-11-21T22:19:07.923Z,1.65
2022-11-21T22:21:38.767Z,2.00
2022-11-21T22:24:28.743Z,1.83
2022-11-21T22:26:56.930Z,1.77
2022-11-21T22:29:24.775Z,2.00
2022-11-21T22:31:52.783Z,1.67
2022-11-21T22:34:20.592Z,1.95
2022-11-21T22:36:50.059Z,2.00
2022-11-21T22:39:18.148Z,1.60
2022-11-21T22:41:46.440Z,1.98
2022-11-21T22:44:14.324Z,1.90
2022-11-21T22:46:42.170Z,1.60
2022-11-21T22:49:09.999Z,1.60
2022-11-21T22:51:37.940Z,1.70
2022-11-21T22:54:07.216Z,1.70
2022-11-21T22:56:35.069Z,1.55
2022-11-21T22:59:03.160Z,1.85
2022-11-21T23:01:33.222Z,1.67
2022-11-21T23:04:01.386Z,1.50
2022-11-21T23:06:29.228Z,1.70
2022-11-21T23:08:58.028Z,1.45
2022-11-21T23:11:28.746Z,1.50
2022-11-21T23:13:57.515Z,1.50
2022-11-21T23:16:26.513Z,1.50
2022-11-21T23:18:55.060Z,1.50
2022-11-21T23:21:23.239Z,1.58
2022-11-21T23:23:51.212Z,1.60
2022-11-21T23:26:19.234Z,1.40
2022-11-21T23:28:48.497Z,1.40
2022-11-21T23:31:16.387Z,1.70
2022-11-21T23:33:44.223Z,1.48
2022-11-21T23:36:12.162Z,1.25
2022-11-21T23:38:40.029Z,1.88
2022-11-21T23:41:07.806Z,1.50
2022-11-21T23:43:35.702Z,1.70
2022-11-21T23:46:05.224Z,1.40
2022-11-21T23:48:32.987Z,1.80
2022-11-21T23:51:00.771Z,1.80
2022-11-21T23:53:28.624Z,1.65
2022-11-21T23:55:56.394Z,1.50
2022-11-21T23:58:24.182Z,1.50
